createdAt,value
2023-01-09T00:02:01.041Z,99304.41
2023-01-09T00:04:27.529Z,99298.44
2023-01-09T00:06:54.405Z,99295.88
2023-01-09T00:09:22.125Z,99290.66
2023-01-09T00:11:49.267Z,99294.97
2023-01-09T00:14:18.992Z,99288.91
2023-01-09T00:16:45.623Z,99291.47
2023-01-09T00:19:12.272Z,99289.72
2023-01-09T00:21:38.777Z,99294.09
2023-01-09T00:24:05.768Z,99294.94
2023-01-09T00:26:32.389Z,99287.16
2023-01-09T00:28:59.094Z,99285.47
2023-01-09T00:31:25.681Z,99284.59
2023-01-09T00:33:56.343Z,99285.44
2023-01-09T00:36:22.982Z,99273.38
2023-01-09T00:38:50.386Z,99262.13
2023-01-09T00:41:29.093Z,99262.13
2023-01-09T00:43:58.627Z,99252.63
2023-01-09T00:46:29.584Z,99244.84
2023-01-09T00:48:56.167Z,99243.97
2023-01-09T00:51:24.262Z,99243.09
2023-01-09T00:53:51.120Z,99229.28
2023-01-09T00:56:19.915Z,99230.16
2023-01-09T00:58:47.446Z,99230.97
2023-01-09T01:01:14.226Z,99230.13
2023-01-09T01:03:41.159Z,99225.78
2023-01-09T01:06:26.227Z,99232.72
2023-01-09T01:08:52.686Z,99237.88
2023-01-09T01:11:19.145Z,99237.00
2023-01-09T01:13:45.598Z,99236.16
2023-01-09T01:16:13.445Z,99236.19
2023-01-09T01:18:40.469Z,99241.34
2023-01-09T01:21:08.251Z,99248.28
2023-01-09T01:23:35.346Z,99243.13
2023-01-09T01:26:13.767Z,99248.22
2023-01-09T01:28:40.451Z,99248.25
2023-01-09T01:31:07.555Z,99252.59
2023-01-09T01:33:34.640Z,99247.38
2023-01-09T01:36:02.771Z,99252.59
2023-01-09T01:38:29.762Z,99244.78
2023-01-09T01:40:56.830Z,99241.34
2023-01-09T01:43:23.425Z,99230.13
2023-01-09T01:45:49.977Z,99236.16
2023-01-09T01:48:27.028Z,99234.41
2023-01-09T01:51:01.030Z,99226.66
2023-01-09T01:53:49.287Z,99220.59
2023-01-09T01:56:19.699Z,99220.63
2023-01-09T01:59:08.339Z,99227.53
2023-01-09T02:01:36.455Z,99215.47
2023-01-09T02:04:03.071Z,99206.81
2023-01-09T02:06:30.561Z,99199.91
2023-01-09T02:08:57.492Z,99200.78
2023-01-09T02:11:24.134Z,99199.03
2023-01-09T02:13:50.669Z,99191.25
2023-01-09T02:16:48.072Z,99187.81
2023-01-09T02:19:26.374Z,99188.69
2023-01-09T02:22:33.043Z,99186.06
2023-01-09T02:25:15.089Z,99192.13
2023-01-09T02:28:03.715Z,99189.53
2023-01-09T02:30:32.876Z,99184.34
2023-01-09T02:33:18.266Z,99194.72
2023-01-09T02:35:57.297Z,99186.09
2023-01-09T02:38:29.359Z,99177.44
2023-01-09T02:41:18.904Z,99185.22
2023-01-09T02:43:45.376Z,99175.72
2023-01-09T02:46:22.812Z,99168.78
2023-01-09T02:48:53.019Z,99167.03
2023-01-09T02:51:52.419Z,99177.41
2023-01-09T02:54:34.229Z,99170.50
2023-01-09T02:57:26.820Z,99156.66
2023-01-09T03:00:22.908Z,99151.50
2023-01-09T03:02:50.762Z,99156.66
2023-01-09T03:05:35.621Z,99154.06
2023-01-09T03:08:04.895Z,99150.53
2023-01-09T03:10:51.812Z,99153.19
2023-01-09T03:13:20.174Z,99167.00
2023-01-09T03:15:49.729Z,99165.22
2023-01-09T03:18:18.078Z,99164.38
2023-01-09T03:20:44.838Z,99154.88
2023-01-09T03:23:11.322Z,99151.47
2023-01-09T03:25:37.766Z,99152.34
2023-01-09T03:28:09.678Z,99151.44
2023-01-09T03:30:36.709Z,99155.66
2023-01-09T03:33:03.324Z,99154.88
2023-01-09T03:35:29.813Z,99147.06
2023-01-09T03:37:56.287Z,99148.84
2023-01-09T03:40:22.712Z,99151.38
2023-01-09T03:42:49.302Z,99144.50
2023-01-09T03:45:16.343Z,99154.78
2023-01-09T03:47:42.859Z,99143.47
2023-01-09T03:50:09.877Z,99143.38
2023-01-09T03:52:36.458Z,99152.25
2023-01-09T03:55:03.042Z,99155.63
2023-01-09T03:57:29.515Z,99155.59
2023-01-09T03:59:56.021Z,99156.34
2023-01-09T04:02:22.568Z,99161.53
2023-01-09T04:04:49.065Z,99154.66
2023-01-09T04:07:15.576Z,99163.47
2023-01-09T04:09:42.064Z,99156.66
2023-01-09T04:12:08.528Z,99162.72
2023-01-09T04:14:35.082Z,99157.41
2023-01-09T04:17:01.609Z,99160.91
2023-01-09T04:19:28.087Z,99159.13
2023-01-09T04:21:54.533Z,99159.13
2023-01-09T04:24:21.045Z,99153.84
2023-01-09T04:26:47.517Z,99150.47
2023-01-09T04:29:13.979Z,99157.44
2023-01-09T04:31:40.461Z,99144.13
2023-01-09T04:34:06.932Z,99149.38
2023-01-09T04:36:35.973Z,99149.41
2023-01-09T04:39:03.169Z,99138.06
2023-01-09T04:41:48.179Z,99145.91
2023-01-09T04:44:15.768Z,99147.72
2023-01-09T04:46:42.219Z,99153.75
2023-01-09T04:49:08.681Z,99151.13
2023-01-09T04:51:35.175Z,99144.06
2023-01-09T04:54:01.660Z,99141.59
2023-01-09T04:56:28.245Z,99146.00
2023-01-09T04:58:54.717Z,99142.31
2023-01-09T05:01:21.271Z,99132.75
2023-01-09T05:03:47.781Z,99140.66
2023-01-09T05:06:14.250Z,99139.06
2023-01-09T05:08:40.829Z,99143.25
2023-01-09T05:11:07.314Z,99132.81
2023-01-09T05:13:34.645Z,99144.97
2023-01-09T05:16:01.176Z,99138.16
2023-01-09T05:18:27.888Z,99135.34
2023-01-09T05:20:54.354Z,99137.03
2023-01-09T05:23:20.838Z,99131.63
2023-01-09T05:25:47.322Z,99137.03
2023-01-09T05:28:13.844Z,99144.78
2023-01-09T05:30:41.046Z,99142.97
2023-01-09T05:33:07.797Z,99142.94
2023-01-09T05:35:34.359Z,99147.22
2023-01-09T05:38:00.866Z,99152.38
2023-01-09T05:40:32.334Z,99142.72
2023-01-09T05:43:05.098Z,99135.00
2023-01-09T05:45:31.651Z,99140.19
2023-01-09T05:47:58.187Z,99140.88
2023-01-09T05:50:24.739Z,99143.56
2023-01-09T05:52:51.177Z,99139.13
2023-01-09T05:55:17.730Z,99145.56
2023-01-09T05:57:44.189Z,99145.75
2023-01-09T06:00:11.251Z,99141.25
2023-01-09T06:02:37.866Z,99146.44
2023-01-09T06:05:04.770Z,99144.72
2023-01-09T06:07:31.272Z,99150.66
2023-01-09T06:09:57.738Z,99141.44
2023-01-09T06:12:24.206Z,99144.06
2023-01-09T06:14:50.678Z,99145.63
2023-01-09T06:17:17.174Z,99158.63
2023-01-09T06:19:43.720Z,99150.31
2023-01-09T06:22:10.243Z,99157.41
2023-01-09T06:24:36.740Z,99156.50
2023-01-09T06:27:03.344Z,99156.34
2023-01-09T06:29:29.808Z,99164.00
2023-01-09T06:31:56.251Z,99170.03
2023-01-09T06:34:22.762Z,99169.25
2023-01-09T06:36:49.241Z,99170.09
2023-01-09T06:39:15.695Z,99178.69
2023-01-09T06:41:42.251Z,99182.28
2023-01-09T06:44:08.728Z,99182.25
2023-01-09T06:46:35.219Z,99180.31
2023-01-09T06:49:01.694Z,99176.09
2023-01-09T06:51:28.164Z,99168.44
2023-01-09T06:53:54.629Z,99162.91
2023-01-09T06:56:21.173Z,99157.75
2023-01-09T06:58:47.710Z,99151.97
2023-01-09T07:01:14.293Z,99150.88
2023-01-09T07:03:40.816Z,99150.81
2023-01-09T07:06:07.409Z,99159.41
2023-01-09T07:08:34.444Z,99164.56
2023-01-09T07:11:00.949Z,99168.03
2023-01-09T07:13:27.431Z,99169.78
2023-01-09T07:15:53.935Z,99171.53
2023-01-09T07:18:20.491Z,99172.44
2023-01-09T07:20:47.033Z,99178.44
2023-01-09T07:23:13.827Z,99174.28
2023-01-09T07:25:42.147Z,99174.16
2023-01-09T07:28:08.610Z,99185.41
2023-01-09T07:30:35.119Z,99188.00
2023-01-09T07:33:03.824Z,99187.16
2023-01-09T07:35:30.511Z,99191.44
2023-01-09T07:37:56.970Z,99199.38
2023-01-09T07:40:23.634Z,99194.16
2023-01-09T07:42:52.728Z,99201.16
2023-01-09T07:45:19.753Z,99199.47
2023-01-09T07:47:46.386Z,99213.28
2023-01-09T07:50:13.100Z,99208.91
2023-01-09T07:52:39.607Z,99210.66
2023-01-09T07:55:06.708Z,99213.31
2023-01-09T07:57:33.177Z,99229.88
2023-01-09T08:00:01.096Z,99232.41
2023-01-09T08:02:27.680Z,99233.50
2023-01-09T08:04:54.151Z,99241.34
2023-01-09T08:07:20.641Z,99246.50
2023-01-09T08:09:47.084Z,99242.97
2023-01-09T08:12:13.553Z,99246.47
2023-01-09T08:14:39.990Z,99244.78
2023-01-09T08:17:06.485Z,99243.81
2023-01-09T08:19:32.941Z,99249.94
2023-01-09T08:21:59.509Z,99251.78
2023-01-09T08:24:25.984Z,99250.81
2023-01-09T08:26:52.509Z,99256.94
2023-01-09T08:29:18.958Z,99255.13
2023-01-09T08:31:45.526Z,99257.72
2023-01-09T08:34:12.007Z,99264.66
2023-01-09T08:36:38.497Z,99270.75
2023-01-09T08:39:04.974Z,99274.28
2023-01-09T08:41:50.088Z,99275.97
2023-01-09T08:44:35.212Z,99282.06
2023-01-09T08:47:07.776Z,99277.75
2023-01-09T08:49:36.422Z,99283.63
2023-01-09T08:52:04.208Z,99277.63
2023-01-09T08:54:31.359Z,99286.25
2023-01-09T08:56:58.092Z,99286.91
2023-01-09T08:59:24.604Z,99286.25
2023-01-09T09:01:51.106Z,99282.75
2023-01-09T09:04:17.640Z,99293.03
2023-01-09T09:06:44.101Z,99295.00
2023-01-09T09:09:11.312Z,99297.53
2023-01-09T09:11:37.793Z,99297.50
2023-01-09T09:14:24.978Z,99294.88
2023-01-09T09:16:52.469Z,99293.22
2023-01-09T09:19:19.031Z,99304.53
2023-01-09T09:21:45.598Z,99300.13
2023-01-09T09:24:12.067Z,99307.03
2023-01-09T09:26:38.728Z,99312.28
2023-01-09T09:29:05.211Z,99315.75
2023-01-09T09:31:31.741Z,99306.00
2023-01-09T09:33:58.814Z,99308.69
2023-01-09T09:36:25.307Z,99318.34
2023-01-09T09:38:51.782Z,99322.69
2023-01-09T09:41:43.710Z,99315.78
2023-01-09T09:44:52.748Z,99330.50
2023-01-09T09:47:51.908Z,99326.94
2023-01-09T09:50:21.445Z,99323.47
2023-01-09T09:53:00.186Z,99332.22
2023-01-09T09:55:32.210Z,99336.53
2023-01-09T09:58:01.509Z,99337.25
2023-01-09T10:00:28.145Z,99332.22
2023-01-09T10:03:06.707Z,99330.44
2023-01-09T10:05:45.517Z,99330.44
2023-01-09T10:08:19.811Z,99339.91
2023-01-09T10:10:53.899Z,99331.34
2023-01-09T10:13:42.518Z,99342.50
2023-01-09T10:16:11.950Z,99332.09
2023-01-09T10:18:57.389Z,99337.28
2023-01-09T10:21:42.561Z,99346.03
2023-01-09T10:24:20.972Z,99344.22
2023-01-09T10:26:50.842Z,99339.91
2023-01-09T10:29:32.681Z,99351.97
2023-01-09T10:32:21.128Z,99348.63
2023-01-09T10:35:08.118Z,99352.78
2023-01-09T10:37:38.279Z,99363.31
2023-01-09T10:40:17.688Z,99360.75
2023-01-09T10:43:07.372Z,99359.69
2023-01-09T10:45:41.415Z,99355.53
2023-01-09T10:48:24.599Z,99363.31
2023-01-09T10:50:51.851Z,99365.97
2023-01-09T10:53:48.968Z,99372.81
2023-01-09T10:56:21.491Z,99364.22
2023-01-09T10:58:49.322Z,99373.69
2023-01-09T11:01:18.584Z,99375.47
2023-01-09T11:03:45.127Z,99385.00
2023-01-09T11:06:21.189Z,99371.06
2023-01-09T11:08:49.719Z,99385.88
2023-01-09T11:11:32.842Z,99378.91
2023-01-09T11:14:18.351Z,99384.06
2023-01-09T11:16:56.791Z,99385.84
2023-01-09T11:19:24.723Z,99390.16
2023-01-09T11:22:09.695Z,99391.00
2023-01-09T11:24:36.226Z,99384.91
2023-01-09T11:27:24.142Z,99396.25
2023-01-09T11:30:09.503Z,99394.53
2023-01-09T11:32:36.387Z,99395.38
2023-01-09T11:35:07.235Z,99409.22
2023-01-09T11:37:34.104Z,99407.50
2023-01-09T11:40:01.059Z,99416.13
2023-01-09T11:42:47.919Z,99415.22
2023-01-09T11:45:21.580Z,99412.69
2023-01-09T11:47:48.099Z,99407.50
2023-01-09T11:50:25.808Z,99414.44
2023-01-09T11:53:13.939Z,99404.03
2023-01-09T11:55:42.945Z,99408.38
2023-01-09T11:58:18.216Z,99412.66
2023-01-09T12:00:55.922Z,99423.94
2023-01-09T12:03:50.152Z,99418.75
2023-01-09T12:06:54.916Z,99421.34
2023-01-09T12:09:31.428Z,99425.66
2023-01-09T12:12:35.340Z,99419.63
2023-01-09T12:15:16.936Z,99407.47
2023-01-09T12:18:11.332Z,99410.97
2023-01-09T12:21:02.938Z,99416.16
2023-01-09T12:24:00.975Z,99419.59
2023-01-09T12:26:39.069Z,99414.38
2023-01-09T12:29:47.703Z,99411.81
2023-01-09T12:32:32.382Z,99406.59
2023-01-09T12:35:11.637Z,99409.16
2023-01-09T12:37:59.877Z,99409.25
2023-01-09T12:41:00.057Z,99419.63
2023-01-09T12:43:35.571Z,99417.88
2023-01-09T12:46:15.560Z,99417.88
2023-01-09T12:48:42.092Z,99423.06
2023-01-09T12:51:14.672Z,99419.63
2023-01-09T12:53:46.206Z,99423.06
2023-01-09T12:56:16.987Z,99415.28
2023-01-09T12:58:50.867Z,99418.72
2023-01-09T13:01:24.810Z,99429.06
2023-01-09T13:04:28.440Z,99424.78
2023-01-09T13:06:58.884Z,99441.25
2023-01-09T13:09:46.263Z,99437.78
2023-01-09T13:12:14.871Z,99437.78
2023-01-09T13:14:49.304Z,99443.75
2023-01-09T13:17:23.774Z,99443.88
2023-01-09T13:19:50.339Z,99436.91
2023-01-09T13:22:18.156Z,99443.69
2023-01-09T13:25:07.127Z,99438.56
2023-01-09T13:27:39.355Z,99449.00
2023-01-09T13:30:47.852Z,99440.34
2023-01-09T13:33:23.060Z,99441.25
2023-01-09T13:35:54.371Z,99438.53
2023-01-09T13:38:23.673Z,99441.78
2023-01-09T13:41:22.355Z,99452.34
2023-01-09T13:43:57.215Z,99452.34
2023-01-09T13:46:33.336Z,99453.22
2023-01-09T13:48:59.877Z,99447.16
2023-01-09T13:51:41.694Z,99456.66
2023-01-09T13:54:09.995Z,99461.75
2023-01-09T13:57:20.418Z,99458.13
2023-01-09T13:59:48.461Z,99466.19
2023-01-09T14:02:33.728Z,99463.34
2023-01-09T14:05:01.022Z,99466.09
2023-01-09T14:07:29.208Z,99473.00
2023-01-09T14:10:00.483Z,99477.06
2023-01-09T14:12:29.227Z,99482.22
2023-01-09T14:14:58.373Z,99487.72
2023-01-09T14:17:32.544Z,99486.81
2023-01-09T14:20:01.429Z,99489.38
2023-01-09T14:22:42.375Z,99493.69
2023-01-09T14:27:59.916Z,99501.56
2023-01-09T14:30:26.387Z,99514.47
2023-01-09T14:33:18.508Z,99514.56
2023-01-09T14:36:06.784Z,99525.09
2023-01-09T14:38:52.512Z,99527.53
2023-01-09T14:41:43.519Z,99530.25
2023-01-09T14:44:24.241Z,99537.19
2023-01-09T14:46:52.627Z,99529.34
2023-01-09T14:49:33.875Z,99535.34
2023-01-09T14:52:10.604Z,99546.59
2023-01-09T14:54:42.190Z,99550.06
2023-01-09T14:57:24.425Z,99552.53
2023-01-09T15:00:01.122Z,99548.22
2023-01-09T15:02:31.747Z,99548.22
2023-01-09T15:05:02.173Z,99552.59
2023-01-09T15:07:34.224Z,99554.22
2023-01-09T15:10:02.369Z,99553.34
2023-01-09T15:12:29.025Z,99559.44
2023-01-09T15:14:58.170Z,99562.09
2023-01-09T15:17:30.924Z,99563.13
2023-01-09T15:19:59.826Z,99568.25
2023-01-09T15:22:32.536Z,99570.94
2023-01-09T15:24:59.969Z,99577.16
2023-01-09T15:27:26.449Z,99579.69
2023-01-09T15:29:53.040Z,99590.06
2023-01-09T15:32:24.152Z,99580.38
2023-01-09T15:34:50.838Z,99588.25
2023-01-09T15:37:33.869Z,99592.69
2023-01-09T15:40:02.036Z,99590.91
2023-01-09T15:42:50.142Z,99589.16
2023-01-09T15:45:24.203Z,99598.63
2023-01-09T15:47:50.699Z,99596.00
2023-01-09T15:50:19.083Z,99609.94
2023-01-09T15:52:45.598Z,99603.81
2023-01-09T15:55:36.869Z,99611.63
2023-01-09T15:58:05.108Z,99609.03
2023-01-09T16:00:41.988Z,99612.50
2023-01-09T16:03:16.510Z,99607.41
2023-01-09T16:05:45.506Z,99610.03
2023-01-09T16:08:24.225Z,99616.97
2023-01-09T16:10:53.257Z,99617.03
2023-01-09T16:13:21.735Z,99623.94
2023-01-09T16:15:48.562Z,99622.19
2023-01-09T16:18:17.933Z,99632.53
2023-01-09T16:20:45.206Z,99622.09
2023-01-09T16:23:31.592Z,99625.69
2023-01-09T16:26:12.579Z,99629.09
2023-01-09T16:28:41.012Z,99626.44
2023-01-09T16:31:20.970Z,99637.72
2023-01-09T16:33:53.358Z,99645.50
2023-01-09T16:36:21.632Z,99644.69
2023-01-09T16:38:48.171Z,99649.84
2023-01-09T16:41:40.057Z,99649.91
2023-01-09T16:44:11.755Z,99657.78
2023-01-09T16:46:45.698Z,99655.19
2023-01-09T16:49:24.147Z,99658.59
2023-01-09T16:51:51.557Z,99661.25
2023-01-09T16:54:18.189Z,99669.00
2023-01-09T16:56:49.043Z,99669.88
2023-01-09T16:59:20.687Z,99681.16
2023-01-09T17:01:51.588Z,99678.59
2023-01-09T17:04:20.131Z,99686.41
2023-01-09T17:06:48.819Z,99687.25
2023-01-09T17:09:17.424Z,99691.63
2023-01-09T17:11:44.426Z,99693.38
2023-01-09T17:14:12.946Z,99697.69
2023-01-09T17:16:41.592Z,99699.41
2023-01-09T17:19:15.324Z,99705.50
2023-01-09T17:21:41.936Z,99712.44
2023-01-09T17:24:27.214Z,99713.31
2023-01-09T17:27:15.798Z,99717.63
2023-01-09T17:29:42.245Z,99727.19
2023-01-09T17:32:14.336Z,99732.41
2023-01-09T17:34:42.060Z,99740.19
2023-01-09T17:37:13.885Z,99739.34
2023-01-09T17:39:40.474Z,99745.38
2023-01-09T17:42:06.957Z,99741.94
2023-01-09T17:44:33.398Z,99752.31
2023-01-09T17:46:59.865Z,99754.09
2023-01-09T17:49:27.517Z,99755.78
2023-01-09T17:51:54.043Z,99762.75
2023-01-09T17:54:21.529Z,99758.38
2023-01-09T17:56:51.020Z,99759.28
2023-01-09T17:59:18.370Z,99756.69
2023-01-09T18:01:47.052Z,99755.84
2023-01-09T18:04:14.027Z,99760.97
2023-01-09T18:06:40.516Z,99763.63
2023-01-09T18:09:07.603Z,99767.09
2023-01-09T18:11:34.408Z,99766.22
2023-01-09T18:14:01.676Z,99782.72
2023-01-09T18:16:28.783Z,99777.53
2023-01-09T18:18:57.674Z,99778.34
2023-01-09T18:21:25.358Z,99778.34
2023-01-09T18:23:52.726Z,99794.00
2023-01-09T18:26:22.138Z,99794.00
2023-01-09T18:28:50.914Z,99811.34
2023-01-09T18:31:22.134Z,99799.22
2023-01-09T18:33:52.752Z,99805.25
2023-01-09T18:36:29.205Z,99812.22
2023-01-09T18:38:57.309Z,99813.09
2023-01-09T18:41:24.540Z,99825.25
2023-01-09T18:43:52.938Z,99817.44
2023-01-09T18:46:24.105Z,99820.91
2023-01-09T18:48:55.630Z,99832.09
2023-01-09T18:51:22.866Z,99829.59
2023-01-09T18:53:50.180Z,99833.84
2023-01-09T18:56:17.388Z,99822.59
2023-01-09T18:58:46.674Z,99839.03
2023-01-09T19:01:14.868Z,99835.50
2023-01-09T19:03:41.575Z,99846.84
2023-01-09T19:06:08.260Z,99846.78
2023-01-09T19:08:35.834Z,99864.22
2023-01-09T19:11:02.825Z,99872.88
2023-01-09T19:13:31.427Z,99873.75
2023-01-09T19:15:58.830Z,99869.50
2023-01-09T19:18:28.659Z,99875.50
2023-01-09T19:20:55.808Z,99877.16
2023-01-09T19:23:26.461Z,99877.16
2023-01-09T19:25:54.286Z,99889.44
2023-01-09T19:28:21.215Z,99884.16
2023-01-09T19:30:48.070Z,99896.25
2023-01-09T19:33:14.761Z,99898.06
2023-01-09T19:35:41.253Z,99900.66
2023-01-09T19:38:07.707Z,99907.63
2023-01-09T19:40:35.930Z,99914.59
2023-01-09T19:43:03.302Z,99906.72
2023-01-09T19:45:32.430Z,99917.09
2023-01-09T19:47:59.950Z,99927.50
2023-01-09T19:50:26.506Z,99936.91
2023-01-09T19:52:53.751Z,99933.41
2023-01-09T19:55:20.409Z,99942.00
2023-01-09T19:57:46.906Z,99944.75
2023-01-09T20:00:14.627Z,99944.84
2023-01-09T20:02:41.799Z,99949.22
2023-01-09T20:05:09.014Z,99940.53
2023-01-09T20:07:35.779Z,99937.16
2023-01-09T20:10:02.336Z,99946.69
2023-01-09T20:12:28.820Z,99959.66
2023-01-09T20:14:56.445Z,99958.84
2023-01-09T20:17:23.031Z,99966.56
2023-01-09T20:19:51.801Z,99967.44
2023-01-09T20:22:18.331Z,99976.06
2023-01-09T20:24:44.842Z,99982.00
2023-01-09T20:27:11.357Z,99984.75
2023-01-09T20:29:38.307Z,99983.88
2023-01-09T20:32:06.364Z,99998.59
2023-01-09T20:34:32.808Z,99990.69
2023-01-09T20:36:59.366Z,99988.03
2023-01-09T20:39:26.431Z,99989.03
2023-01-09T20:41:52.916Z,99994.97
2023-01-09T20:44:19.506Z,99999.09
2023-01-09T20:46:49.485Z,99998.47
2023-01-09T20:49:18.299Z,100008.72
2023-01-09T20:51:47.969Z,100002.75
2023-01-09T20:54:16.328Z,100018.41
2023-01-09T20:56:43.596Z,100018.41
2023-01-09T20:59:17.099Z,100018.97
2023-01-09T21:01:43.939Z,100028.00
2023-01-09T21:04:14.062Z,100034.09
2023-01-09T21:06:40.694Z,100036.50
2023-01-09T21:09:07.326Z,100045.88
2023-01-09T21:11:34.448Z,100045.88
2023-01-09T21:14:00.935Z,100049.53
2023-01-09T21:16:27.995Z,100058.34
2023-01-09T21:18:55.278Z,100064.34
2023-01-09T21:21:27.352Z,100054.03
2023-01-09T21:23:57.521Z,100064.44
2023-01-09T21:26:27.947Z,100066.03
2023-01-09T21:28:55.978Z,100067.00
2023-01-09T21:31:30.814Z,100074.66
2023-01-09T21:33:57.664Z,100085.06
2023-01-09T21:36:24.217Z,100078.00
2023-01-09T21:38:53.641Z,100083.28
2023-01-09T21:41:39.327Z,100091.75
2023-01-09T21:44:24.881Z,100090.25
2023-01-09T21:46:57.749Z,100083.41
2023-01-09T21:49:25.895Z,100091.69
2023-01-09T21:51:55.556Z,100095.50
2023-01-09T21:54:25.953Z,100102.41
2023-01-09T21:56:53.182Z,100104.88
2023-01-09T21:59:20.078Z,100107.53
2023-01-09T22:01:48.227Z,100113.84
2023-01-09T22:04:15.894Z,100118.91
2023-01-09T22:06:42.666Z,100133.63
2023-01-09T22:09:10.166Z,100132.78
2023-01-09T22:11:38.010Z,100140.63
2023-01-09T22:14:05.516Z,100142.31
2023-01-09T22:16:32.136Z,100156.84
2023-01-09T22:18:58.706Z,100158.41
2023-01-09T22:21:25.739Z,100157.03
2023-01-09T22:23:52.269Z,100160.47
2023-01-09T22:26:19.037Z,100168.09
2023-01-09T22:28:46.075Z,100166.56
2023-01-09T22:31:16.449Z,100174.31
2023-01-09T22:33:43.336Z,100172.69
2023-01-09T22:36:11.338Z,100172.53
2023-01-09T22:38:38.159Z,100181.16
2023-01-09T22:41:04.701Z,100182.91
2023-01-09T22:43:31.601Z,100180.53
2023-01-09T22:46:02.327Z,100183.22
2023-01-09T22:48:32.255Z,100199.44
2023-01-09T22:51:00.864Z,100211.41
2023-01-09T22:53:28.251Z,100214.16
2023-01-09T22:55:59.771Z,100211.41
2023-01-09T22:58:27.904Z,100224.78
2023-01-09T23:00:54.769Z,100230.44
2023-01-09T23:03:21.589Z,100239.09
2023-01-09T23:05:48.343Z,100235.59
2023-01-09T23:08:15.728Z,100241.69
2023-01-09T23:10:42.663Z,100251.09
2023-01-09T23:13:09.193Z,100249.38
2023-01-09T23:15:35.649Z,100256.59
2023-01-09T23:18:02.118Z,100249.34
2023-01-09T23:20:29.027Z,100249.91
2023-01-09T23:22:57.652Z,100251.84
2023-01-09T23:25:25.363Z,100254.56
2023-01-09T23:27:51.804Z,100267.31
2023-01-09T23:30:18.253Z,100269.63
2023-01-09T23:32:44.919Z,100280.88
2023-01-09T23:35:11.523Z,100276.22
2023-01-09T23:37:38.181Z,100273.72
2023-01-09T23:40:05.277Z,100271.16
2023-01-09T23:42:50.466Z,100286.00
2023-01-09T23:45:17.018Z,100277.06
2023-01-09T23:47:43.454Z,100289.34
2023-01-09T23:50:10.995Z,100288.63
2023-01-09T23:52:37.734Z,100292.88
2023-01-09T23:55:04.576Z,100298.56
2023-01-09T23:57:31.025Z,100301.34
2023-01-09T23:59:57.475Z,100308.19
